sensor_id;sensor_type;location;lat;lon;timestamp;temperature;humidity
3360;DHT22;1693;49.602;11.046;2023-04-29T00:01:24;11.00;99.90
3360;DHT22;1693;49.602;11.046;2023-04-29T00:03:51;11.10;99.90
3360;DHT22;1693;49.602;11.046;2023-04-29T00:06:18;11.20;99.90
3360;DHT22;1693;49.602;11.046;2023-04-29T00:08:46;11.20;99.90
3360;DHT22;1693;49.602;11.046;2023-04-29T00:11:13;11.20;99.90
3360;DHT22;1693;49.602;11.046;2023-04-29T00:13:40;11.10;99.90
3360;DHT22;1693;49.602;11.046;2023-04-29T00:16:07;11.20;99.90
3360;DHT22;1693;49.602;11.046;2023-04-29T00:18:37;11.30;99.90
3360;DHT22;1693;49.602;11.046;2023-04-29T00:21:05;11.20;99.90
3360;DHT22;1693;49.602;11.046;2023-04-29T00:23:32;11.20;99.90
3360;DHT22;1693;49.602;11.046;2023-04-29T00:25:59;10.90;99.90
3360;DHT22;1693;49.602;11.046;2023-04-29T00:28:27;10.90;99.90
3360;DHT22;1693;49.602;11.046;2023-04-29T00:30:55;11.00;99.90
3360;DHT22;1693;49.602;11.046;2023-04-29T00:33:23;11.00;99.90
3360;DHT22;1693;49.602;11.046;2023-04-29T00:35:52;11.20;99.90
3360;DHT22;1693;49.602;11.046;2023-04-29T00:38:19;11.20;99.90
3360;DHT22;1693;49.602;11.046;2023-04-29T00:40:47;11.10;99.90
3360;DHT22;1693;49.602;11.046;2023-04-29T00:43:14;11.10;99.90
3360;DHT22;1693;49.602;11.046;2023-04-29T00:45:41;11.20;99.90
3360;DHT22;1693;49.602;11.046;2023-04-29T00:48:08;11.20;99.90
3360;DHT22;1693;49.602;11.046;2023-04-29T00:50:35;11.20;99.90
3360;DHT22;1693;49.602;11.046;2023-04-29T00:53:04;11.10;99.90
3360;DHT22;1693;49.602;11.046;2023-04-29T00:55:32;11.00;99.90
3360;DHT22;1693;49.602;11.046;2023-04-29T00:57:59;10.80;99.90
3360;DHT22;1693;49.602;11.046;2023-04-29T01:00:27;10.70;99.90
3360;DHT22;1693;49.602;11.046;2023-04-29T01:02:54;10.70;99.90
3360;DHT22;1693;49.602;11.046;2023-04-29T01:05:22;10.80;99.90
3360;DHT22;1693;49.602;11.046;2023-04-29T01:07:58;10.80;99.90
3360;DHT22;1693;49.602;11.046;2023-04-29T01:10:41;10.80;99.90
3360;DHT22;1693;49.602;11.046;2023-04-29T01:13:16;10.70;99.90
3360;DHT22;1693;49.602;11.046;2023-04-29T01:15:47;10.40;99.90
3360;DHT22;1693;49.602;11.046;2023-04-29T01:18:20;10.40;99.90
3360;DHT22;1693;49.602;11.046;2023-04-29T01:20:49;10.40;99.90
3360;DHT22;1693;49.602;11.046;2023-04-29T01:23:16;10.30;99.90
3360;DHT22;1693;49.602;11.046;2023-04-29T01:25:45;10.40;99.90
3360;DHT22;1693;49.602;11.046;2023-04-29T01:28:20;10.50;99.90
3360;DHT22;1693;49.602;11.046;2023-04-29T01:30:51;10.40;99.90
3360;DHT22;1693;49.602;11.046;2023-04-29T01:33:31;10.10;99.90
3360;DHT22;1693;49.602;11.046;2023-04-29T01:36:10;10.10;99.90
3360;DHT22;1693;49.602;11.046;2023-04-29T01:38:43;10.00;99.90
3360;DHT22;1693;49.602;11.046;2023-04-29T01:41:15;10.10;99.90
3360;DHT22;1693;49.602;11.046;2023-04-29T01:43:46;10.00;99.90
3360;DHT22;1693;49.602;11.046;2023-04-29T01:46:17;9.80;99.90
3360;DHT22;1693;49.602;11.046;2023-04-29T01:48:45;9.70;99.90
3360;DHT22;1693;49.602;11.046;2023-04-29T01:51:12;9.90;99.90
3360;DHT22;1693;49.602;11.046;2023-04-29T01:53:39;9.90;99.90
3360;DHT22;1693;49.602;11.046;2023-04-29T01:56:07;10.00;99.90
3360;DHT22;1693;49.602;11.046;2023-04-29T01:58:36;10.10;99.90
3360;DHT22;1693;49.602;11.046;2023-04-29T02:01:03;10.00;99.90
3360;DHT22;1693;49.602;11.046;2023-04-29T02:03:30;10.10;99.90
3360;DHT22;1693;49.602;11.046;2023-04-29T02:05:57;10.10;99.90
3360;DHT22;1693;49.602;11.046;2023-04-29T02:08:27;10.00;99.90
3360;DHT22;1693;49.602;11.046;2023-04-29T02:10:55;10.00;99.90
3360;DHT22;1693;49.602;11.046;2023-04-29T02:13:22;10.00;99.90
3360;DHT22;1693;49.602;11.046;2023-04-29T02:15:51;10.10;99.90
3360;DHT22;1693;49.602;11.046;2023-04-29T02:18:18;10.10;99.90
3360;DHT22;1693;49.602;11.046;2023-04-29T02:20:45;10.20;99.90
3360;DHT22;1693;49.602;11.046;2023-04-29T02:23:14;10.00;99.90
3360;DHT22;1693;49.602;11.046;2023-04-29T02:25:42;9.90;99.90
3360;DHT22;1693;49.602;11.046;2023-04-29T02:28:10;9.70;99.90
3360;DHT22;1693;49.602;11.046;2023-04-29T02:30:37;9.60;99.90
3360;DHT22;1693;49.602;11.046;2023-04-29T02:33:06;9.60;99.90
3360;DHT22;1693;49.602;11.046;2023-04-29T02:35:33;9.50;99.90
3360;DHT22;1693;49.602;11.046;2023-04-29T02:38:00;9.50;99.90
3360;DHT22;1693;49.602;11.046;2023-04-29T02:40:27;9.60;99.90
3360;DHT22;1693;49.602;11.046;2023-04-29T02:42:54;9.50;99.90
3360;DHT22;1693;49.602;11.046;2023-04-29T02:45:21;9.50;99.90
3360;DHT22;1693;49.602;11.046;2023-04-29T02:47:48;9.50;99.90
3360;DHT22;1693;49.602;11.046;2023-04-29T02:50:17;9.60;99.90
3360;DHT22;1693;49.602;11.046;2023-04-29T02:52:44;9.60;99.90
3360;DHT22;1693;49.602;11.046;2023-04-29T02:55:11;9.60;99.90
3360;DHT22;1693;49.602;11.046;2023-04-29T02:57:38;9.50;99.90
3360;DHT22;1693;49.602;11.046;2023-04-29T03:00:07;9.50;99.90
3360;DHT22;1693;49.602;11.046;2023-04-29T03:02:35;9.40;99.90
3360;DHT22;1693;49.602;11.046;2023-04-29T03:05:02;9.30;99.90
3360;DHT22;1693;49.602;11.046;2023-04-29T03:07:30;9.50;99.90
3360;DHT22;1693;49.602;11.046;2023-04-29T03:09:58;9.70;99.90
3360;DHT22;1693;49.602;11.046;2023-04-29T03:12:25;9.70;99.90
3360;DHT22;1693;49.602;11.046;2023-04-29T03:14:52;9.50;99.90
3360;DHT22;1693;49.602;11.046;2023-04-29T03:17:19;9.50;99.90
3360;DHT22;1693;49.602;11.046;2023-04-29T03:19:46;9.40;99.90
3360;DHT22;1693;49.602;11.046;2023-04-29T03:22:13;9.40;99.90
3360;DHT22;1693;49.602;11.046;2023-04-29T03:24:42;9.50;99.90
3360;DHT22;1693;49.602;11.046;2023-04-29T03:27:09;9.60;99.90
3360;DHT22;1693;49.602;11.046;2023-04-29T03:29:36;9.60;99.90
3360;DHT22;1693;49.602;11.046;2023-04-29T03:32:04;9.60;99.90
3360;DHT22;1693;49.602;11.046;2023-04-29T03:34:31;9.60;99.90
3360;DHT22;1693;49.602;11.046;2023-04-29T03:36:58;9.70;99.90
3360;DHT22;1693;49.602;11.046;2023-04-29T03:39:26;9.60;99.90
3360;DHT22;1693;49.602;11.046;2023-04-29T03:41:58;9.60;99.90
3360;DHT22;1693;49.602;11.046;2023-04-29T03:44:26;9.60;99.90
3360;DHT22;1693;49.602;11.046;2023-04-29T03:46:54;9.70;99.90
3360;DHT22;1693;49.602;11.046;2023-04-29T03:49:21;9.70;99.90
3360;DHT22;1693;49.602;11.046;2023-04-29T03:51:48;9.70;99.90
3360;DHT22;1693;49.602;11.046;2023-04-29T03:54:16;9.70;99.90
3360;DHT22;1693;49.602;11.046;2023-04-29T03:56:43;9.70;99.90
3360;DHT22;1693;49.602;11.046;2023-04-29T03:59:11;9.70;99.90
3360;DHT22;1693;49.602;11.046;2023-04-29T04:01:38;9.80;99.90
3360;DHT22;1693;49.602;11.046;2023-04-29T04:04:05;9.90;99.90
3360;DHT22;1693;49.602;11.046;2023-04-29T04:06:32;9.90;99.90
3360;DHT22;1693;49.602;11.046;2023-04-29T04:08:59;9.90;99.90
3360;DHT22;1693;49.602;11.046;2023-04-29T04:11:26;9.90;99.90
3360;DHT22;1693;49.602;11.046;2023-04-29T04:13:53;10.00;99.90
3360;DHT22;1693;49.602;11.046;2023-04-29T04:16:22;10.00;99.90
3360;DHT22;1693;49.602;11.046;2023-04-29T04:18:49;10.00;99.90
3360;DHT22;1693;49.602;11.046;2023-04-29T04:21:16;10.00;99.90
3360;DHT22;1693;49.602;11.046;2023-04-29T04:23:43;10.20;99.90
3360;DHT22;1693;49.602;11.046;2023-04-29T04:26:10;10.30;99.90
3360;DHT22;1693;49.602;11.046;2023-04-29T04:28:37;10.40;99.90
3360;DHT22;1693;49.602;11.046;2023-04-29T04:31:05;10.60;99.90
3360;DHT22;1693;49.602;11.046;2023-04-29T04:33:34;10.70;99.90
3360;DHT22;1693;49.602;11.046;2023-04-29T04:36:01;10.60;99.90
3360;DHT22;1693;49.602;11.046;2023-04-29T04:38:28;10.70;99.90
3360;DHT22;1693;49.602;11.046;2023-04-29T04:40:55;10.50;99.90
3360;DHT22;1693;49.602;11.046;2023-04-29T04:43:22;10.40;99.90
3360;DHT22;1693;49.602;11.046;2023-04-29T04:45:49;10.40;99.90
3360;DHT22;1693;49.602;11.046;2023-04-29T04:48:16;10.40;99.90
3360;DHT22;1693;49.602;11.046;2023-04-29T04:50:44;10.50;99.90
3360;DHT22;1693;49.602;11.046;2023-04-29T04:53:12;10.50;99.90
3360;DHT22;1693;49.602;11.046;2023-04-29T04:55:39;10.60;99.90
3360;DHT22;1693;49.602;11.046;2023-04-29T04:58:06;10.60;99.90
3360;DHT22;1693;49.602;11.046;2023-04-29T05:00:35;10.60;99.90
3360;DHT22;1693;49.602;11.046;2023-04-29T05:03:02;10.70;99.90
3360;DHT22;1693;49.602;11.046;2023-04-29T05:05:29;10.90;99.90
3360;DHT22;1693;49.602;11.046;2023-04-29T05:07:58;10.80;99.90
3360;DHT22;1693;49.602;11.046;2023-04-29T05:10:25;10.70;99.90
3360;DHT22;1693;49.602;11.046;2023-04-29T05:12:52;10.70;99.90
3360;DHT22;1693;49.602;11.046;2023-04-29T05:15:19;10.70;99.90
3360;DHT22;1693;49.602;11.046;2023-04-29T05:17:47;10.90;99.90
3360;DHT22;1693;49.602;11.046;2023-04-29T05:20:14;10.90;99.90
3360;DHT22;1693;49.602;11.046;2023-04-29T05:22:41;10.90;99.90
3360;DHT22;1693;49.602;11.046;2023-04-29T05:25:10;10.90;99.90
3360;DHT22;1693;49.602;11.046;2023-04-29T05:27:37;10.90;99.90
3360;DHT22;1693;49.602;11.046;2023-04-29T05:30:05;11.00;99.90
3360;DHT22;1693;49.602;11.046;2023-04-29T05:32:33;11.00;99.90
3360;DHT22;1693;49.602;11.046;2023-04-29T05:35:00;11.00;99.90
3360;DHT22;1693;49.602;11.046;2023-04-29T05:37:27;11.10;99.90
3360;DHT22;1693;49.602;11.046;2023-04-29T05:39:56;11.30;99.90
3360;DHT22;1693;49.602;11.046;2023-04-29T05:42:25;11.50;99.90
3360;DHT22;1693;49.602;11.046;2023-04-29T05:44:52;11.60;99.90
3360;DHT22;1693;49.602;11.046;2023-04-29T05:47:19;11.70;99.90
3360;DHT22;1693;49.602;11.046;2023-04-29T05:49:46;11.80;99.90
3360;DHT22;1693;49.602;11.046;2023-04-29T05:52:13;11.80;99.90
3360;DHT22;1693;49.602;11.046;2023-04-29T05:54:40;11.90;99.90
3360;DHT22;1693;49.602;11.046;2023-04-29T05:57:07;12.00;99.90
3360;DHT22;1693;49.602;11.046;2023-04-29T05:59:36;12.10;99.90
3360;DHT22;1693;49.602;11.046;2023-04-29T06:02:03;12.20;99.90
3360;DHT22;1693;49.602;11.046;2023-04-29T06:04:30;12.20;99.90
3360;DHT22;1693;49.602;11.046;2023-04-29T06:06:57;12.40;99.90
3360;DHT22;1693;49.602;11.046;2023-04-29T06:09:24;12.70;99.90
3360;DHT22;1693;49.602;11.046;2023-04-29T06:11:51;12.90;99.90
3360;DHT22;1693;49.602;11.046;2023-04-29T06:14:18;12.90;99.90
3360;DHT22;1693;49.602;11.046;2023-04-29T06:16:47;13.10;99.90
3360;DHT22;1693;49.602;11.046;2023-04-29T06:19:15;13.40;99.90
3360;DHT22;1693;49.602;11.046;2023-04-29T06:21:42;13.70;99.90
3360;DHT22;1693;49.602;11.046;2023-04-29T06:24:09;13.90;99.90
3360;DHT22;1693;49.602;11.046;2023-04-29T06:26:36;13.70;99.90
3360;DHT22;1693;49.602;11.046;2023-04-29T06:29:03;14.00;99.90
3360;DHT22;1693;49.602;11.046;2023-04-29T06:31:30;14.10;99.90
3360;DHT22;1693;49.602;11.046;2023-04-29T06:33:59;14.00;99.90
3360;DHT22;1693;49.602;11.046;2023-04-29T06:36:26;13.80;99.90
3360;DHT22;1693;49.602;11.046;2023-04-29T06:38:53;13.80;99.90
3360;DHT22;1693;49.602;11.046;2023-04-29T06:41:20;13.60;99.90
3360;DHT22;1693;49.602;11.046;2023-04-29T06:43:48;13.60;99.90
3360;DHT22;1693;49.602;11.046;2023-04-29T06:46:15;13.60;99.90
3360;DHT22;1693;49.602;11.046;2023-04-29T06:48:43;13.70;99.90
3360;DHT22;1693;49.602;11.046;2023-04-29T06:51:11;13.70;99.90
3360;DHT22;1693;49.602;11.046;2023-04-29T06:53:38;13.70;99.90
3360;DHT22;1693;49.602;11.046;2023-04-29T06:56:07;13.90;99.90
3360;DHT22;1693;49.602;11.046;2023-04-29T06:58:34;13.80;99.90
3360;DHT22;1693;49.602;11.046;2023-04-29T07:01:01;13.90;99.90
3360;DHT22;1693;49.602;11.046;2023-04-29T07:03:29;14.00;99.90
3360;DHT22;1693;49.602;11.046;2023-04-29T07:05:56;14.00;99.90
3360;DHT22;1693;49.602;11.046;2023-04-29T07:08:25;14.30;99.90
3360;DHT22;1693;49.602;11.046;2023-04-29T07:10:53;14.60;99.90
3360;DHT22;1693;49.602;11.046;2023-04-29T07:13:21;14.80;99.90
3360;DHT22;1693;49.602;11.046;2023-04-29T07:15:48;15.00;99.90
3360;DHT22;1693;49.602;11.046;2023-04-29T07:18:15;15.00;99.90
3360;DHT22;1693;49.602;11.046;2023-04-29T07:20:42;15.10;99.90
3360;DHT22;1693;49.602;11.046;2023-04-29T07:23:10;15.00;99.90
3360;DHT22;1693;49.602;11.046;2023-04-29T07:25:39;15.10;99.90
3360;DHT22;1693;49.602;11.046;2023-04-29T07:28:06;15.20;99.90
3360;DHT22;1693;49.602;11.046;2023-04-29T07:30:34;15.20;99.90
3360;DHT22;1693;49.602;11.046;2023-04-29T07:33:01;15.10;99.90
3360;DHT22;1693;49.602;11.046;2023-04-29T07:35:28;14.90;99.90
3360;DHT22;1693;49.602;11.046;2023-04-29T07:37:56;15.20;99.90
3360;DHT22;1693;49.602;11.046;2023-04-29T07:40:23;15.30;99.90
3360;DHT22;1693;49.602;11.046;2023-04-29T07:42:52;15.30;99.90
3360;DHT22;1693;49.602;11.046;2023-04-29T07:45:19;15.20;99.90
3360;DHT22;1693;49.602;11.046;2023-04-29T07:47:46;15.40;99.90
3360;DHT22;1693;49.602;11.046;2023-04-29T07:50:13;15.50;99.90
3360;DHT22;1693;49.602;11.046;2023-04-29T07:52:40;15.60;99.90
3360;DHT22;1693;49.602;11.046;2023-04-29T07:55:08;15.70;99.90
3360;DHT22;1693;49.602;11.046;2023-04-29T07:57:35;15.90;99.90
3360;DHT22;1693;49.602;11.046;2023-04-29T08:00:05;16.00;99.90
3360;DHT22;1693;49.602;11.046;2023-04-29T08:02:33;16.20;99.90
3360;DHT22;1693;49.602;11.046;2023-04-29T08:05:01;16.10;99.90
3360;DHT22;1693;49.602;11.046;2023-04-29T08:07:28;16.00;99.90
3360;DHT22;1693;49.602;11.046;2023-04-29T08:09:55;16.10;99.90
3360;DHT22;1693;49.602;11.046;2023-04-29T08:12:22;15.90;99.90
3360;DHT22;1693;49.602;11.046;2023-04-29T08:14:49;15.90;99.90
3360;DHT22;1693;49.602;11.046;2023-04-29T08:17:18;15.80;99.90
3360;DHT22;1693;49.602;11.046;2023-04-29T08:19:45;15.90;99.90
3360;DHT22;1693;49.602;11.046;2023-04-29T08:22:12;15.90;99.90
3360;DHT22;1693;49.602;11.046;2023-04-29T08:24:40;15.70;99.90
3360;DHT22;1693;49.602;11.046;2023-04-29T08:27:07;15.40;99.90
3360;DHT22;1693;49.602;11.046;2023-04-29T08:29:34;15.00;99.90
3360;DHT22;1693;49.602;11.046;2023-04-29T08:32:02;15.20;99.90
3360;DHT22;1693;49.602;11.046;2023-04-29T08:34:30;15.20;99.90
3360;DHT22;1693;49.602;11.046;2023-04-29T08:36:58;15.10;99.90
3360;DHT22;1693;49.602;11.046;2023-04-29T08:39:26;15.10;99.90
3360;DHT22;1693;49.602;11.046;2023-04-29T08:41:54;15.10;99.90
3360;DHT22;1693;49.602;11.046;2023-04-29T08:44:22;15.10;99.90
3360;DHT22;1693;49.602;11.046;2023-04-29T08:46:50;14.80;99.90
3360;DHT22;1693;49.602;11.046;2023-04-29T08:49:18;15.10;99.90
3360;DHT22;1693;49.602;11.046;2023-04-29T08:51:48;15.30;99.90
3360;DHT22;1693;49.602;11.046;2023-04-29T08:54:16;15.30;99.90
3360;DHT22;1693;49.602;11.046;2023-04-29T08:56:44;15.20;99.90
3360;DHT22;1693;49.602;11.046;2023-04-29T08:59:13;15.30;99.90
3360;DHT22;1693;49.602;11.046;2023-04-29T09:01:42;15.50;99.90
3360;DHT22;1693;49.602;11.046;2023-04-29T09:04:18;15.50;99.90
3360;DHT22;1693;49.602;11.046;2023-04-29T09:06:48;14.80;99.90
3360;DHT22;1693;49.602;11.046;2023-04-29T09:09:16;14.60;99.90
3360;DHT22;1693;49.602;11.046;2023-04-29T09:11:44;14.60;99.90
3360;DHT22;1693;49.602;11.046;2023-04-29T09:14:12;14.60;99.90
3360;DHT22;1693;49.602;11.046;2023-04-29T09:16:40;14.80;99.90
3360;DHT22;1693;49.602;11.046;2023-04-29T09:19:07;15.40;99.90
3360;DHT22;1693;49.602;11.046;2023-04-29T09:21:34;15.70;99.90
3360;DHT22;1693;49.602;11.046;2023-04-29T09:24:03;15.80;99.90
3360;DHT22;1693;49.602;11.046;2023-04-29T09:26:40;15.90;99.90
3360;DHT22;1693;49.602;11.046;2023-04-29T09:29:10;16.00;99.90
3360;DHT22;1693;49.602;11.046;2023-04-29T09:31:38;16.40;99.90
3360;DHT22;1693;49.602;11.046;2023-04-29T09:34:06;16.70;99.90
3360;DHT22;1693;49.602;11.046;2023-04-29T09:36:36;17.20;99.90
3360;DHT22;1693;49.602;11.046;2023-04-29T09:39:05;17.90;99.90
3360;DHT22;1693;49.602;11.046;2023-04-29T09:44:20;17.70;99.90
3360;DHT22;1693;49.602;11.046;2023-04-29T09:46:54;17.60;99.90
3360;DHT22;1693;49.602;11.046;2023-04-29T09:49:22;17.10;99.90
3360;DHT22;1693;49.602;11.046;2023-04-29T09:51:55;16.80;99.90
3360;DHT22;1693;49.602;11.046;2023-04-29T09:54:26;16.50;99.90
3360;DHT22;1693;49.602;11.046;2023-04-29T09:56:56;16.70;99.90
3360;DHT22;1693;49.602;11.046;2023-04-29T09:59:24;16.60;99.90
3360;DHT22;1693;49.602;11.046;2023-04-29T10:01:54;16.40;99.90
3360;DHT22;1693;49.602;11.046;2023-04-29T10:04:23;16.50;99.90
3360;DHT22;1693;49.602;11.046;2023-04-29T10:06:52;16.30;99.90
3360;DHT22;1693;49.602;11.046;2023-04-29T10:09:21;16.60;99.90
3360;DHT22;1693;49.602;11.046;2023-04-29T10:11:52;16.70;99.90
3360;DHT22;1693;49.602;11.046;2023-04-29T10:14:20;16.60;99.90
3360;DHT22;1693;49.602;11.046;2023-04-29T10:16:53;16.50;99.90
3360;DHT22;1693;49.602;11.046;2023-04-29T10:19:26;16.40;99.90
3360;DHT22;1693;49.602;11.046;2023-04-29T10:21:57;16.90;99.90
3360;DHT22;1693;49.602;11.046;2023-04-29T10:24:26;16.80;99.90
3360;DHT22;1693;49.602;11.046;2023-04-29T10:26:55;16.50;99.90
3360;DHT22;1693;49.602;11.046;2023-04-29T10:29:24;16.40;99.90
3360;DHT22;1693;49.602;11.046;2023-04-29T10:31:53;16.40;99.90
3360;DHT22;1693;49.602;11.046;2023-04-29T10:34:22;17.00;99.90
3360;DHT22;1693;49.602;11.046;2023-04-29T10:36:50;17.00;99.90
3360;DHT22;1693;49.602;11.046;2023-04-29T10:39:24;17.30;99.90
3360;DHT22;1693;49.602;11.046;2023-04-29T10:41:54;17.30;99.90
3360;DHT22;1693;49.602;11.046;2023-04-29T10:44:22;17.30;99.90
3360;DHT22;1693;49.602;11.046;2023-04-29T10:46:49;17.20;99.90
3360;DHT22;1693;49.602;11.046;2023-04-29T10:49:36;17.30;99.90
3360;DHT22;1693;49.602;11.046;2023-04-29T10:52:03;18.10;99.90
3360;DHT22;1693;49.602;11.046;2023-04-29T10:54:31;18.50;99.90
3360;DHT22;1693;49.602;11.046;2023-04-29T10:56:59;18.70;99.90
3360;DHT22;1693;49.602;11.046;2023-04-29T10:59:44;18.40;99.90
3360;DHT22;1693;49.602;11.046;2023-04-29T11:02:11;18.30;99.90
3360;DHT22;1693;49.602;11.046;2023-04-29T11:07:39;17.90;99.90
3360;DHT22;1693;49.602;11.046;2023-04-29T11:10:09;17.70;99.90
3360;DHT22;1693;49.602;11.046;2023-04-29T11:12:37;17.60;99.90
3360;DHT22;1693;49.602;11.046;2023-04-29T11:15:07;17.50;99.90
3360;DHT22;1693;49.602;11.046;2023-04-29T11:17:37;17.20;99.90
3360;DHT22;1693;49.602;11.046;2023-04-29T11:20:09;17.20;99.90
3360;DHT22;1693;49.602;11.046;2023-04-29T11:22:36;17.20;99.90
3360;DHT22;1693;49.602;11.046;2023-04-29T11:25:04;17.40;99.90
3360;DHT22;1693;49.602;11.046;2023-04-29T11:27:33;17.50;99.90
3360;DHT22;1693;49.602;11.046;2023-04-29T11:30:03;17.60;99.90
3360;DHT22;1693;49.602;11.046;2023-04-29T11:32:32;17.60;99.90
3360;DHT22;1693;49.602;11.046;2023-04-29T11:35:10;17.50;99.90
3360;DHT22;1693;49.602;11.046;2023-04-29T11:37:38;17.60;99.90
3360;DHT22;1693;49.602;11.046;2023-04-29T11:40:07;17.50;99.90
3360;DHT22;1693;49.602;11.046;2023-04-29T11:42:39;17.30;99.90
3360;DHT22;1693;49.602;11.046;2023-04-29T11:45:08;16.70;99.90
3360;DHT22;1693;49.602;11.046;2023-04-29T11:47:37;16.70;99.90
3360;DHT22;1693;49.602;11.046;2023-04-29T11:50:08;16.80;99.90
3360;DHT22;1693;49.602;11.046;2023-04-29T11:52:37;16.70;99.90
3360;DHT22;1693;49.602;11.046;2023-04-29T11:55:07;16.90;99.90
3360;DHT22;1693;49.602;11.046;2023-04-29T11:57:35;16.70;99.90
3360;DHT22;1693;49.602;11.046;2023-04-29T12:00:02;16.60;99.90
3360;DHT22;1693;49.602;11.046;2023-04-29T12:02:32;16.30;99.90
3360;DHT22;1693;49.602;11.046;2023-04-29T12:04:59;16.60;99.90
3360;DHT22;1693;49.602;11.046;2023-04-29T12:07:31;16.70;99.90
3360;DHT22;1693;49.602;11.046;2023-04-29T12:09:58;16.60;99.90
3360;DHT22;1693;49.602;11.046;2023-04-29T12:12:26;16.50;99.90
3360;DHT22;1693;49.602;11.046;2023-04-29T12:14:53;16.60;99.90
3360;DHT22;1693;49.602;11.046;2023-04-29T12:17:21;16.50;99.90
3360;DHT22;1693;49.602;11.046;2023-04-29T12:19:50;16.40;99.90
3360;DHT22;1693;49.602;11.046;2023-04-29T12:22:18;16.60;99.90
3360;DHT22;1693;49.602;11.046;2023-04-29T12:24:46;17.10;99.90
3360;DHT22;1693;49.602;11.046;2023-04-29T12:27:15;17.30;99.90
3360;DHT22;1693;49.602;11.046;2023-04-29T12:29:42;17.20;99.90
3360;DHT22;1693;49.602;11.046;2023-04-29T12:32:16;17.10;99.90
3360;DHT22;1693;49.602;11.046;2023-04-29T12:34:45;17.10;99.90
3360;DHT22;1693;49.602;11.046;2023-04-29T12:37:14;16.80;99.90
3360;DHT22;1693;49.602;11.046;2023-04-29T12:39:41;16.80;99.90
3360;DHT22;1693;49.602;11.046;2023-04-29T12:42:14;17.10;99.90
3360;DHT22;1693;49.602;11.046;2023-04-29T12:44:44;16.90;99.90
3360;DHT22;1693;49.602;11.046;2023-04-29T12:47:13;16.90;99.90
3360;DHT22;1693;49.602;11.046;2023-04-29T12:49:41;16.90;99.90
3360;DHT22;1693;49.602;11.046;2023-04-29T12:52:10;17.20;99.90
3360;DHT22;1693;49.602;11.046;2023-04-29T12:54:39;17.20;99.90
3360;DHT22;1693;49.602;11.046;2023-04-29T12:57:09;17.40;99.90
3360;DHT22;1693;49.602;11.046;2023-04-29T12:59:36;17.10;99.90
3360;DHT22;1693;49.602;11.046;2023-04-29T13:02:03;16.90;99.90
3360;DHT22;1693;49.602;11.046;2023-04-29T13:04:30;17.20;99.90
3360;DHT22;1693;49.602;11.046;2023-04-29T13:06:57;16.90;99.90
3360;DHT22;1693;49.602;11.046;2023-04-29T13:09:26;16.60;99.90
3360;DHT22;1693;49.602;11.046;2023-04-29T13:11:55;16.40;99.90
3360;DHT22;1693;49.602;11.046;2023-04-29T13:14:22;16.30;99.90
3360;DHT22;1693;49.602;11.046;2023-04-29T13:16:49;16.30;99.90
3360;DHT22;1693;49.602;11.046;2023-04-29T13:19:16;16.20;99.90
3360;DHT22;1693;49.602;11.046;2023-04-29T13:21:43;16.50;99.90
3360;DHT22;1693;49.602;11.046;2023-04-29T13:24:11;16.30;99.90
3360;DHT22;1693;49.602;11.046;2023-04-29T13:26:38;16.40;99.90
3360;DHT22;1693;49.602;11.046;2023-04-29T13:29:07;16.40;99.90
3360;DHT22;1693;49.602;11.046;2023-04-29T13:31:34;16.20;99.90
3360;DHT22;1693;49.602;11.046;2023-04-29T13:34:01;16.10;99.90
3360;DHT22;1693;49.602;11.046;2023-04-29T13:36:28;16.20;99.90
3360;DHT22;1693;49.602;11.046;2023-04-29T13:38:55;16.20;99.90
3360;DHT22;1693;49.602;11.046;2023-04-29T13:41:22;16.10;99.90
3360;DHT22;1693;49.602;11.046;2023-04-29T13:43:51;15.80;99.90
3360;DHT22;1693;49.602;11.046;2023-04-29T13:46:19;15.50;99.90
3360;DHT22;1693;49.602;11.046;2023-04-29T13:48:48;15.10;99.90
3360;DHT22;1693;49.602;11.046;2023-04-29T13:51:15;15.10;99.90
3360;DHT22;1693;49.602;11.046;2023-04-29T13:53:42;14.90;99.90
3360;DHT22;1693;49.602;11.046;2023-04-29T13:56:10;14.90;99.90
3360;DHT22;1693;49.602;11.046;2023-04-29T13:58:37;14.70;99.90
3360;DHT22;1693;49.602;11.046;2023-04-29T14:01:04;14.70;99.90
3360;DHT22;1693;49.602;11.046;2023-04-29T14:03:33;14.50;99.90
3360;DHT22;1693;49.602;11.046;2023-04-29T14:06:00;14.50;99.90
3360;DHT22;1693;49.602;11.046;2023-04-29T14:08:27;14.40;99.90
3360;DHT22;1693;49.602;11.046;2023-04-29T14:10:55;14.50;99.90
3360;DHT22;1693;49.602;11.046;2023-04-29T14:13:22;14.50;99.90
3360;DHT22;1693;49.602;11.046;2023-04-29T14:15:49;14.40;99.90
3360;DHT22;1693;49.602;11.046;2023-04-29T14:18:16;14.60;99.90
3360;DHT22;1693;49.602;11.046;2023-04-29T14:20:45;14.50;99.90
3360;DHT22;1693;49.602;11.046;2023-04-29T14:23:12;14.50;99.90
3360;DHT22;1693;49.602;11.046;2023-04-29T14:25:40;14.40;99.90
3360;DHT22;1693;49.602;11.046;2023-04-29T14:28:07;14.30;99.90
3360;DHT22;1693;49.602;11.046;2023-04-29T14:30:34;14.20;99.90
3360;DHT22;1693;49.602;11.046;2023-04-29T14:33:02;14.20;99.90
3360;DHT22;1693;49.602;11.046;2023-04-29T14:35:30;14.30;99.90
3360;DHT22;1693;49.602;11.046;2023-04-29T14:37:59;14.50;99.90
3360;DHT22;1693;49.602;11.046;2023-04-29T14:40:27;14.60;99.90
3360;DHT22;1693;49.602;11.046;2023-04-29T14:42:54;14.90;99.90
3360;DHT22;1693;49.602;11.046;2023-04-29T14:45:21;14.90;99.90
3360;DHT22;1693;49.602;11.046;2023-04-29T14:47:48;14.90;99.90
3360;DHT22;1693;49.602;11.046;2023-04-29T14:50:15;14.90;99.90
3360;DHT22;1693;49.602;11.046;2023-04-29T14:52:42;15.00;99.90
3360;DHT22;1693;49.602;11.046;2023-04-29T14:55:11;15.20;99.90
3360;DHT22;1693;49.602;11.046;2023-04-29T14:57:38;15.00;99.90
3360;DHT22;1693;49.602;11.046;2023-04-29T15:00:06;15.20;99.90
3360;DHT22;1693;49.602;11.046;2023-04-29T15:02:33;15.30;99.90
3360;DHT22;1693;49.602;11.046;2023-04-29T15:05:00;15.60;99.90
3360;DHT22;1693;49.602;11.046;2023-04-29T15:07:28;15.80;99.90
3360;DHT22;1693;49.602;11.046;2023-04-29T15:09:56;15.90;99.90
3360;DHT22;1693;49.602;11.046;2023-04-29T15:12:24;16.20;99.90
3360;DHT22;1693;49.602;11.046;2023-04-29T15:14:51;16.10;99.90
3360;DHT22;1693;49.602;11.046;2023-04-29T15:17:19;15.70;99.90
3360;DHT22;1693;49.602;11.046;2023-04-29T15:19:46;15.60;99.90
3360;DHT22;1693;49.602;11.046;2023-04-29T15:22:13;15.60;99.90
3360;DHT22;1693;49.602;11.046;2023-04-29T15:24:40;15.60;99.90
3360;DHT22;1693;49.602;11.046;2023-04-29T15:27:07;15.50;99.90
3360;DHT22;1693;49.602;11.046;2023-04-29T15:29:35;15.50;99.90
3360;DHT22;1693;49.602;11.046;2023-04-29T15:32:03;15.50;99.90
3360;DHT22;1693;49.602;11.046;2023-04-29T15:34:30;15.70;99.90
3360;DHT22;1693;49.602;11.046;2023-04-29T15:36:57;15.60;99.90
3360;DHT22;1693;49.602;11.046;2023-04-29T15:39:24;15.60;99.90
3360;DHT22;1693;49.602;11.046;2023-04-29T15:41:51;15.60;99.90
3360;DHT22;1693;49.602;11.046;2023-04-29T15:44:18;15.40;99.90
3360;DHT22;1693;49.602;11.046;2023-04-29T15:46:47;15.10;99.90
3360;DHT22;1693;49.602;11.046;2023-04-29T15:49:14;15.10;99.90
3360;DHT22;1693;49.602;11.046;2023-04-29T15:51:41;15.00;99.90
3360;DHT22;1693;49.602;11.046;2023-04-29T15:54:08;14.90;99.90
3360;DHT22;1693;49.602;11.046;2023-04-29T15:56:36;14.90;99.90
3360;DHT22;1693;49.602;11.046;2023-04-29T15:59:03;15.00;99.90